Time;durP1;ratioP1;P1;durP2;ratioP2;P2;SDS_P1;SDS_P2;PMS_P1;PMS_P2;Temp;Humidity;BMP_temperature;BMP_pressure;BME280_temperature;BME280_humidity;BME280_pressure;Samples;Min_cycle;Max_cycle;Signal;HPM_P1;HPM_P2
2021/04/28 00:00:12;;;;;;;13.13;9.02;;;12.00;99.90;;;;;;5095145;28;20656;-68
2021/04/28 00:02:38;;;;;;;17.85;10.38;;;12.00;99.90;;;;;;5096686;28;20204;-68
2021/04/28 00:05:08;;;;;;;15.77;10.03;;;12.00;99.90;;;;;;5096318;28;20264;-68
2021/04/28 00:07:34;;;;;;;13.20;9.25;;;12.00;99.90;;;;;;5095091;28;20634;-67
2021/04/28 00:10:00;;;;;;;14.65;10.18;;;12.00;99.90;;;;;;5096136;28;20299;-69
2021/04/28 00:12:26;;;;;;;15.53;10.40;;;12.00;99.90;;;;;;5096480;28;20215;-68
2021/04/28 00:14:52;;;;;;;14.00;9.70;;;12.00;99.90;;;;;;5096084;28;20184;-68
2021/04/28 00:17:18;;;;;;;17.07;9.93;;;12.00;99.90;;;;;;5094756;28;20409;-68
2021/04/28 00:19:44;;;;;;;17.40;10.33;;;12.00;99.90;;;;;;5094739;28;20903;-68
2021/04/28 00:22:10;;;;;;;17.75;10.02;;;12.00;99.90;;;;;;5096276;28;20514;-68
2021/04/28 00:24:36;;;;;;;19.88;11.85;;;11.90;99.90;;;;;;5095831;28;20662;-68
2021/04/28 00:27:02;;;;;;;15.07;10.13;;;11.90;99.90;;;;;;5096272;28;20175;-68
2021/04/28 00:29:28;;;;;;;17.40;10.90;;;11.90;99.90;;;;;;5095835;28;20214;-68
2021/04/28 00:31:53;;;;;;;14.47;10.03;;;11.80;99.90;;;;;;5094646;28;20184;-68
2021/04/28 00:34:19;;;;;;;12.07;9.43;;;11.80;99.90;;;;;;5094364;28;20670;-68
2021/04/28 00:36:45;;;;;;;15.30;9.83;;;11.80;99.90;;;;;;5095873;28;20200;-68
2021/04/28 00:39:10;;;;;;;16.20;10.77;;;11.70;99.90;;;;;;5095597;28;20198;-67
2021/04/28 00:41:36;;;;;;;19.47;11.20;;;11.70;99.90;;;;;;5095743;28;20424;-68
2021/04/28 00:44:02;;;;;;;16.43;11.60;;;11.60;99.90;;;;;;5095452;28;20204;-68
2021/04/28 00:46:28;;;;;;;14.30;9.27;;;11.60;99.90;;;;;;5093964;28;20285;-67
2021/04/28 00:48:54;;;;;;;16.20;11.07;;;11.60;99.90;;;;;;5094512;28;20440;-68
2021/04/28 00:51:20;;;;;;;17.58;10.93;;;11.60;99.90;;;;;;5094105;28;20614;-68
2021/04/28 00:53:46;;;;;;;14.87;8.60;;;11.60;99.90;;;;;;5095288;28;20231;-68
2021/04/28 00:56:12;;;;;;;13.40;10.20;;;11.60;99.90;;;;;;5095367;28;20215;-68
2021/04/28 00:58:38;;;;;;;16.43;11.70;;;11.70;99.90;;;;;;5093841;28;20598;-68
2021/04/28 01:01:04;;;;;;;13.40;9.63;;;11.70;99.90;;;;;;5095272;28;20614;-68
2021/04/28 01:03:30;;;;;;;21.42;11.55;;;11.60;99.90;;;;;;5093773;28;20730;-68
2021/04/28 01:05:59;;;;;;;16.80;10.17;;;11.60;99.90;;;;;;5095052;28;20248;-69
2021/04/28 01:08:25;;;;;;;15.88;10.02;;;11.70;99.90;;;;;;5095114;28;20530;-67
2021/04/28 01:10:52;;;;;;;14.80;9.63;;;11.70;99.90;;;;;;5094959;28;20200;-68
2021/04/28 01:13:19;;;;;;;13.98;9.63;;;11.70;99.90;;;;;;5094954;28;20565;-69
2021/04/28 01:15:46;;;;;;;15.88;10.20;;;11.70;99.90;;;;;;5093621;28;20638;-68
2021/04/28 01:18:11;;;;;;;13.50;9.30;;;11.70;99.90;;;;;;5094903;28;20631;-67
2021/04/28 01:20:39;;;;;;;14.47;10.00;;;11.80;99.90;;;;;;5094744;28;20203;-68
2021/04/28 01:23:06;;;;;;;18.90;10.38;;;11.70;99.90;;;;;;5094806;28;20192;-67
2021/04/28 01:25:33;;;;;;;16.30;9.70;;;11.70;99.90;;;;;;5093332;28;20180;-69
2021/04/28 01:28:08;;;;;;;15.35;9.60;;;11.70;99.90;;;;;;5094475;28;20219;-68
2021/04/28 01:31:01;;;;;;;18.10;9.73;;;11.70;99.90;;;;;;5094541;28;20199;-69
2021/04/28 01:33:37;;;;;;;14.77;9.07;;;11.70;99.90;;;;;;5094537;28;20200;-68
2021/04/28 01:36:07;;;;;;;13.38;9.30;;;11.70;99.90;;;;;;5094792;28;20259;-67
2021/04/28 01:38:39;;;;;;;17.08;9.85;;;11.70;99.90;;;;;;5093303;28;20196;-67
2021/04/28 01:41:05;;;;;;;10.52;8.18;;;11.70;99.90;;;;;;5093713;28;20184;-67
2021/04/28 01:43:31;;;;;;;13.17;8.87;;;11.80;99.90;;;;;;5093118;28;20203;-67
2021/04/28 01:45:57;;;;;;;13.32;7.55;;;11.70;99.90;;;;;;5093080;28;20180;-69
2021/04/28 01:48:23;;;;;;;8.25;6.20;;;11.70;99.90;;;;;;5094147;28;20236;-68
2021/04/28 01:50:50;;;;;;;9.33;6.60;;;11.70;99.90;;;;;;5094251;28;20572;-68
2021/04/28 01:53:18;;;;;;;7.75;6.03;;;11.70;99.90;;;;;;5094195;28;20421;-67
2021/04/28 01:55:45;;;;;;;9.05;6.07;;;11.70;99.90;;;;;;5092916;28;20649;-68
2021/04/28 01:58:12;;;;;;;8.30;5.63;;;11.60;99.90;;;;;;5092853;28;20200;-67
2021/04/28 02:00:39;;;;;;;8.40;6.07;;;11.60;99.90;;;;;;5094052;28;20164;-67
2021/04/28 02:03:05;;;;;;;8.68;6.15;;;11.60;99.90;;;;;;5094126;28;20657;-68
2021/04/28 02:05:31;;;;;;;7.45;6.20;;;11.60;99.90;;;;;;5092815;28;20168;-69
2021/04/28 02:07:57;;;;;;;11.48;5.90;;;11.60;99.90;;;;;;5092777;28;20214;-69
2021/04/28 02:10:23;;;;;;;9.83;6.30;;;11.60;99.90;;;;;;5093894;28;20283;-68
2021/04/28 02:12:49;;;;;;;7.53;5.60;;;11.50;99.90;;;;;;5094370;28;20286;-67
2021/04/28 02:15:18;;;;;;;9.18;6.35;;;11.50;99.90;;;;;;5094094;28;20168;-68
2021/04/28 02:17:44;;;;;;;6.22;4.82;;;11.50;99.90;;;;;;5094263;28;20245;-67
2021/04/28 02:20:14;;;;;;;10.07;6.30;;;11.60;99.90;;;;;;5092678;28;20188;-68
2021/04/28 02:22:41;;;;;;;6.63;5.28;;;11.60;99.90;;;;;;5094253;28;20298;-69
2021/04/28 02:25:10;;;;;;;7.50;5.10;;;11.60;99.90;;;;;;5093815;28;20207;-68
2021/04/28 02:27:37;;;;;;;5.75;5.10;;;11.60;99.90;;;;;;5094245;28;20176;-67
2021/04/28 02:30:08;;;;;;;7.93;5.28;;;11.50;99.90;;;;;;5093780;28;20251;-69
2021/04/28 02:32:34;;;;;;;5.53;4.85;;;11.40;99.90;;;;;;5093602;28;20180;-68
2021/04/28 02:35:00;;;;;;;8.57;4.33;;;11.40;99.90;;;;;;5093906;28;20226;-69
2021/04/28 02:37:29;;;;;;;7.60;5.20;;;11.30;99.90;;;;;;5094118;28;20171;-68
2021/04/28 02:40:04;;;;;;;9.88;5.93;;;11.30;99.90;;;;;;5093673;28;20176;-69
2021/04/28 02:42:31;;;;;;;6.95;6.22;;;11.30;99.90;;;;;;5093868;28;20272;-68
2021/04/28 02:44:59;;;;;;;6.97;4.95;;;11.30;99.90;;;;;;5093625;28;20180;-67
2021/04/28 02:47:26;;;;;;;11.07;5.57;;;11.40;99.90;;;;;;5093374;28;20228;-67
2021/04/28 02:49:52;;;;;;;8.90;5.53;;;11.40;99.90;;;;;;5092225;28;20220;-68
2021/04/28 02:52:20;;;;;;;6.22;5.35;;;11.40;99.90;;;;;;5093770;28;20172;-67
2021/04/28 02:54:46;;;;;;;6.93;4.80;;;11.40;99.90;;;;;;5093602;28;20179;-67
2021/04/28 02:57:12;;;;;;;7.35;5.03;;;11.40;99.90;;;;;;5093925;28;20295;-68
2021/04/28 02:59:38;;;;;;;6.18;4.55;;;11.50;99.90;;;;;;5093369;28;20200;-68
2021/04/28 03:02:11;;;;;;;7.07;4.33;;;11.40;99.90;;;;;;5093767;28;20652;-68
2021/04/28 03:04:39;;;;;;;5.57;5.05;;;11.40;99.90;;;;;;5093470;28;20633;-67
2021/04/28 03:07:05;;;;;;;6.45;5.00;;;11.40;99.90;;;;;;5093760;28;20173;-68
2021/04/28 03:09:31;;;;;;;4.70;4.17;;;11.30;99.90;;;;;;5093202;28;20241;-67
2021/04/28 03:11:57;;;;;;;5.70;4.60;;;11.20;99.90;;;;;;5094451;28;20184;-67
2021/04/28 03:14:23;;;;;;;7.40;4.55;;;11.20;99.90;;;;;;5097326;28;20659;-68
2021/04/28 03:16:49;;;;;;;5.57;4.45;;;11.10;99.90;;;;;;5096054;28;20545;-67
2021/04/28 03:19:16;;;;;;;5.67;4.57;;;11.10;99.90;;;;;;5097099;28;20184;-69
2021/04/28 03:21:46;;;;;;;4.97;4.18;;;11.10;99.90;;;;;;5097317;28;20412;-69
2021/04/28 03:24:12;;;;;;;6.28;4.50;;;11.00;99.90;;;;;;5097099;28;20196;-68
2021/04/28 03:26:38;;;;;;;7.43;4.87;;;10.90;99.90;;;;;;5095852;28;20183;-67
2021/04/28 03:29:03;;;;;;;5.40;4.57;;;11.00;99.90;;;;;;5097044;28;20425;-68
2021/04/28 03:31:29;;;;;;;10.17;5.20;;;11.00;99.90;;;;;;5097031;28;20212;-67
2021/04/28 03:33:55;;;;;;;7.73;5.30;;;11.00;99.90;;;;;;5096856;28;20515;-67
2021/04/28 03:36:20;;;;;;;4.90;4.40;;;11.00;99.90;;;;;;5096913;28;20656;-67
2021/04/28 03:38:46;;;;;;;7.33;4.73;;;11.00;99.90;;;;;;5096754;28;20253;-69
2021/04/28 03:41:12;;;;;;;6.20;5.13;;;11.00;99.90;;;;;;5096924;28;20211;-67
2021/04/28 03:43:38;;;;;;;6.30;5.10;;;11.10;99.90;;;;;;5096611;28;20208;-67
2021/04/28 03:46:03;;;;;;;6.30;5.40;;;11.10;99.90;;;;;;5096417;28;20188;-69
2021/04/28 03:48:29;;;;;;;7.40;6.13;;;11.10;99.90;;;;;;5096965;28;20287;-68
2021/04/28 03:50:55;;;;;;;10.67;7.70;;;11.10;99.90;;;;;;5096489;28;20326;-68
2021/04/28 03:53:20;;;;;;;7.60;6.20;;;11.10;99.90;;;;;;5095817;28;20551;-68
2021/04/28 03:55:46;;;;;;;5.20;4.70;;;11.10;99.90;;;;;;5095446;28;20259;-67
2021/04/28 03:58:12;;;;;;;11.33;4.70;;;11.10;99.90;;;;;;5095564;28;20232;-67
2021/04/28 04:00:37;;;;;;;8.63;6.10;;;11.00;99.90;;;;;;5095842;28;20191;-68
2021/04/28 04:03:04;;;;;;;5.07;4.23;;;11.00;99.90;;;;;;5096245;28;20201;-67
2021/04/28 04:05:30;;;;;;;6.05;4.93;;;11.00;99.90;;;;;;5094476;28;20268;-68
2021/04/28 04:07:56;;;;;;;7.40;5.53;;;11.00;99.90;;;;;;5094841;28;20282;-68
2021/04/28 04:10:21;;;;;;;5.77;4.43;;;10.90;99.90;;;;;;5095672;28;20241;-69
2021/04/28 04:12:47;;;;;;;5.83;4.33;;;10.90;99.90;;;;;;5096482;28;20212;-68
2021/04/28 04:15:13;;;;;;;4.80;4.30;;;10.90;99.90;;;;;;5095297;28;20184;-69
2021/04/28 04:17:38;;;;;;;7.70;5.50;;;10.90;99.90;;;;;;5096436;28;20566;-68
2021/04/28 04:20:06;;;;;;;6.97;4.83;;;10.90;99.90;;;;;;5096065;28;20172;-68
2021/04/28 04:22:31;;;;;;;5.90;4.55;;;10.90;99.90;;;;;;5094585;28;20172;-68
2021/04/28 04:24:57;;;;;;;6.23;4.63;;;11.00;99.90;;;;;;5095901;28;20187;-68
2021/04/28 04:27:23;;;;;;;5.10;4.60;;;11.00;99.90;;;;;;5095766;28;20432;-67
2021/04/28 04:29:49;;;;;;;10.00;4.47;;;11.10;99.90;;;;;;5095341;28;20195;-68
2021/04/28 04:32:14;;;;;;;5.13;4.33;;;11.10;99.90;;;;;;5093802;28;20684;-67
2021/04/28 04:34:40;;;;;;;5.60;4.30;;;11.20;99.90;;;;;;5085960;28;20213;-68
2021/04/28 04:37:08;;;;;;;5.43;4.63;;;11.20;99.90;;;;;;5094555;28;20180;-67
2021/04/28 04:39:34;;;;;;;5.55;4.90;;;11.20;99.90;;;;;;5094357;28;20215;-69
2021/04/28 04:41:59;;;;;;;7.63;5.50;;;11.10;99.90;;;;;;5095040;28;20526;-68
2021/04/28 04:44:26;;;;;;;6.37;5.40;;;11.10;99.90;;;;;;5095528;28;20204;-67
2021/04/28 04:46:51;;;;;;;10.32;6.50;;;11.10;99.90;;;;;;5094711;28;20301;-68
2021/04/28 04:49:17;;;;;;;5.60;5.10;;;11.10;99.90;;;;;;5094853;28;20197;-68
2021/04/28 04:51:42;;;;;;;6.90;5.80;;;11.10;99.90;;;;;;5094382;28;20303;-67
2021/04/28 04:54:08;;;;;;;4.73;4.33;;;11.10;99.90;;;;;;5093535;28;20212;-67
2021/04/28 04:56:34;;;;;;;8.07;4.67;;;11.20;99.90;;;;;;5092072;28;20589;-68
2021/04/28 04:58:59;;;;;;;3.93;3.63;;;11.10;99.90;;;;;;5093269;28;20215;-68
2021/04/28 05:01:25;;;;;;;5.57;5.07;;;11.10;99.90;;;;;;5092489;28;20271;-69
2021/04/28 05:03:51;;;;;;;7.27;5.13;;;11.00;99.90;;;;;;5090402;28;20230;-69
2021/04/28 05:06:17;;;;;;;4.47;4.07;;;11.00;99.90;;;;;;5095190;28;20660;-68
2021/04/28 05:08:42;;;;;;;6.00;4.60;;;10.90;99.90;;;;;;5094140;28;20213;-67
2021/04/28 05:11:08;;;;;;;8.90;4.60;;;11.00;99.90;;;;;;5091816;28;20223;-67
2021/04/28 05:13:34;;;;;;;6.30;4.63;;;11.00;99.90;;;;;;5094782;28;20628;-68
2021/04/28 05:15:59;;;;;;;6.53;4.70;;;11.00;99.90;;;;;;5094991;28;20188;-67
2021/04/28 05:18:25;;;;;;;7.47;5.23;;;11.00;99.90;;;;;;5093484;28;20554;-68
2021/04/28 05:20:50;;;;;;;8.30;5.30;;;11.10;99.90;;;;;;5093779;28;20172;-68
2021/04/28 05:23:16;;;;;;;6.20;5.30;;;11.10;99.90;;;;;;5093562;28;20200;-67
2021/04/28 05:25:41;;;;;;;7.00;5.00;;;11.10;99.90;;;;;;5092586;28;20183;-68
2021/04/28 05:28:07;;;;;;;5.87;4.77;;;11.10;99.90;;;;;;5094432;28;20683;-68
2021/04/28 05:30:33;;;;;;;7.40;5.13;;;11.10;99.90;;;;;;5093063;28;20203;-69
2021/04/28 05:32:59;;;;;;;5.53;4.67;;;11.10;99.90;;;;;;5079805;28;20208;-68
2021/04/28 05:35:25;;;;;;;4.80;4.30;;;11.10;99.90;;;;;;5069452;28;20187;-69
2021/04/28 05:37:50;;;;;;;7.40;4.97;;;11.20;99.90;;;;;;5076977;28;21012;-69
2021/04/28 05:40:17;;;;;;;5.37;4.70;;;11.20;99.90;;;;;;5077876;28;20188;-68
2021/04/28 05:42:42;;;;;;;8.02;5.10;;;11.20;99.90;;;;;;5085614;28;20209;-70
2021/04/28 05:45:10;;;;;;;7.10;4.90;;;11.20;99.90;;;;;;5076164;28;20181;-68
2021/04/28 05:47:37;;;;;;;6.35;4.85;;;11.20;99.90;;;;;;5070376;28;20476;-69
2021/04/28 05:50:05;;;;;;;6.05;5.35;;;11.20;99.90;;;;;;5082491;28;20709;-68
2021/04/28 05:52:30;;;;;;;5.93;5.32;;;11.30;99.90;;;;;;5072394;28;20215;-67
2021/04/28 05:54:56;;;;;;;6.73;5.00;;;11.30;99.90;;;;;;5068669;28;20671;-68
2021/04/28 05:57:21;;;;;;;6.13;5.27;;;11.30;99.90;;;;;;5076102;28;20188;-67
2021/04/28 05:59:47;;;;;;;8.30;6.30;;;11.30;99.90;;;;;;5084406;28;20227;-68
2021/04/28 06:02:13;;;;;;;7.70;5.27;;;11.30;99.90;;;;;;5086807;28;20180;-68
2021/04/28 06:04:39;;;;;;;6.70;4.93;;;11.30;99.90;;;;;;5090899;28;20208;-69
2021/04/28 06:07:05;;;;;;;7.15;4.95;;;11.30;99.90;;;;;;5089140;28;20279;-68
2021/04/28 06:09:31;;;;;;;7.25;5.00;;;11.30;99.90;;;;;;5091456;28;20208;-68
2021/04/28 06:11:57;;;;;;;7.97;5.50;;;11.40;99.90;;;;;;5074591;28;20216;-68
2021/04/28 06:14:23;;;;;;;6.27;5.03;;;11.40;99.90;;;;;;5072448;28;20193;-69
2021/04/28 06:16:48;;;;;;;8.00;5.67;;;11.30;99.90;;;;;;5077099;28;20181;-67
2021/04/28 06:19:15;;;;;;;15.03;6.17;;;11.40;99.90;;;;;;5070900;28;20714;-67
2021/04/28 06:21:40;;;;;;;8.13;5.90;;;11.50;99.90;;;;;;5073858;28;20575;-67
2021/04/28 06:24:07;;;;;;;7.20;5.57;;;11.50;99.90;;;;;;5068521;28;20209;-68
2021/04/28 06:26:33;;;;;;;5.65;4.95;;;11.60;99.90;;;;;;5071251;28;20230;-67
2021/04/28 06:28:59;;;;;;;7.10;5.10;;;11.70;99.90;;;;;;5068164;28;20291;-68
2021/04/28 06:31:25;;;;;;;6.45;5.85;;;11.70;99.90;;;;;;5068895;28;20220;-68
2021/04/28 06:33:51;;;;;;;8.33;5.80;;;11.80;99.90;;;;;;5084615;28;20192;-68
2021/04/28 06:36:17;;;;;;;8.67;6.60;;;11.70;99.90;;;;;;5077820;28;20176;-68
2021/04/28 06:38:43;;;;;;;9.00;5.70;;;11.80;99.90;;;;;;5088451;28;20436;-67
2021/04/28 06:41:08;;;;;;;6.90;5.47;;;11.70;99.90;;;;;;5070438;28;20180;-69
2021/04/28 06:43:34;;;;;;;7.40;5.90;;;11.60;99.90;;;;;;5069360;28;20362;-68
2021/04/28 06:45:59;;;;;;;7.37;6.03;;;11.80;99.90;;;;;;5081865;28;20184;-70
2021/04/28 06:48:25;;;;;;;8.40;6.30;;;11.80;99.90;;;;;;5089100;28;20668;-69
2021/04/28 06:50:52;;;;;;;6.20;5.60;;;11.80;99.90;;;;;;5091495;28;20200;-68
2021/04/28 06:53:18;;;;;;;7.40;6.07;;;11.80;99.90;;;;;;5090734;28;20203;-68
2021/04/28 06:55:44;;;;;;;10.00;7.03;;;11.90;99.90;;;;;;5088888;28;20259;-68
2021/04/28 06:58:10;;;;;;;10.23;6.50;;;11.90;99.90;;;;;;5090635;28;20216;-69
2021/04/28 07:00:35;;;;;;;10.30;6.87;;;12.00;99.90;;;;;;5093807;28;20168;-69
2021/04/28 07:03:01;;;;;;;11.33;7.40;;;12.00;99.90;;;;;;5093574;28;20223;-69
2021/04/28 07:05:27;;;;;;;7.03;6.33;;;12.00;99.90;;;;;;5090821;28;20180;-69
2021/04/28 07:07:53;;;;;;;8.13;7.07;;;12.10;99.90;;;;;;5089359;28;20355;-68
2021/04/28 07:10:19;;;;;;;8.30;6.30;;;12.20;99.90;;;;;;5094853;28;20464;-69
2021/04/28 07:12:45;;;;;;;9.80;6.83;;;12.20;99.90;;;;;;5096163;28;20200;-69
2021/04/28 07:15:11;;;;;;;11.83;6.50;;;12.20;99.90;;;;;;5096508;28;20405;-69
2021/04/28 07:17:37;;;;;;;11.57;7.82;;;12.30;99.90;;;;;;5096874;28;20204;-69
2021/04/28 07:20:08;;;;;;;9.40;6.70;;;12.20;99.90;;;;;;5096767;28;20226;-70
2021/04/28 07:22:34;;;;;;;10.27;8.00;;;12.20;99.90;;;;;;5096600;28;20238;-69
2021/04/28 07:25:00;;;;;;;9.70;7.17;;;12.20;99.90;;;;;;5096648;28;20238;-68
2021/04/28 07:27:26;;;;;;;8.97;7.13;;;12.20;99.90;;;;;;5096486;28;20954;-68
2021/04/28 07:29:52;;;;;;;14.93;8.63;;;12.20;99.90;;;;;;5096387;28;20260;-68
2021/04/28 07:32:17;;;;;;;12.00;7.77;;;12.20;99.90;;;;;;5096359;28;20902;-69
2021/04/28 07:34:43;;;;;;;11.50;8.33;;;12.20;99.90;;;;;;5095945;28;20177;-69
2021/04/28 07:37:09;;;;;;;15.40;9.00;;;12.30;99.90;;;;;;5096293;28;20173;-69
2021/04/28 07:39:35;;;;;;;9.97;8.50;;;12.30;99.90;;;;;;5094423;28;20437;-69
2021/04/28 07:42:01;;;;;;;13.38;8.25;;;12.30;99.90;;;;;;5096285;28;20575;-69
2021/04/28 07:44:30;;;;;;;17.48;8.98;;;12.30;99.90;;;;;;5094644;28;20258;-69
2021/04/28 07:46:59;;;;;;;13.48;8.43;;;12.30;99.90;;;;;;5094201;28;20232;-68
2021/04/28 07:49:25;;;;;;;10.93;8.13;;;12.30;99.90;;;;;;5074821;28;20631;-67
2021/04/28 07:51:51;;;;;;;11.57;8.07;;;12.20;99.90;;;;;;5090691;28;20300;-68
2021/04/28 07:54:17;;;;;;;11.80;6.93;;;12.20;99.90;;;;;;5090983;28;20223;-69
2021/04/28 07:56:43;;;;;;;11.07;7.90;;;12.20;99.90;;;;;;5091140;28;20195;-69
2021/04/28 07:59:10;;;;;;;12.37;7.63;;;12.10;99.90;;;;;;5093455;28;20539;-69
2021/04/28 08:01:36;;;;;;;12.07;8.05;;;11.60;99.90;;;;;;5094715;28;20176;-69
2021/04/28 08:04:02;;;;;;;9.97;7.00;;;11.60;99.90;;;;;;5092227;28;20209;-69
2021/04/28 08:06:28;;;;;;;10.85;8.77;;;11.80;99.90;;;;;;5093668;28;20421;-72
2021/04/28 08:08:54;;;;;;;12.53;8.57;;;11.80;99.90;;;;;;5093667;28;20211;-69
2021/04/28 08:11:19;;;;;;;11.80;8.70;;;11.70;99.90;;;;;;5094184;28;20247;-68
2021/04/28 08:13:47;;;;;;;12.07;7.90;;;11.60;99.90;;;;;;5087001;28;20441;-68
2021/04/28 08:16:14;;;;;;;10.45;7.43;;;11.60;99.90;;;;;;5089081;28;20176;-69
2021/04/28 08:18:39;;;;;;;12.35;7.78;;;11.60;99.90;;;;;;5088033;28;20911;-68
2021/04/28 08:21:05;;;;;;;12.03;7.40;;;11.50;99.90;;;;;;5089664;28;20278;-69
2021/04/28 08:23:31;;;;;;;17.57;8.30;;;11.40;99.90;;;;;;5086743;28;20212;-68
2021/04/28 08:26:02;;;;;;;10.53;7.17;;;11.40;99.90;;;;;;5083206;28;20429;-69
2021/04/28 08:28:28;;;;;;;11.63;8.50;;;11.60;99.90;;;;;;5088918;28;20677;-68
2021/04/28 08:30:54;;;;;;;14.13;8.88;;;11.60;99.90;;;;;;5090106;28;20262;-68
2021/04/28 08:33:20;;;;;;;10.17;8.30;;;11.60;99.90;;;;;;5086156;28;20736;-68
2021/04/28 08:35:45;;;;;;;10.80;8.37;;;11.70;99.90;;;;;;5089378;28;20188;-69
2021/04/28 08:38:11;;;;;;;13.70;8.63;;;11.70;99.90;;;;;;5091870;28;20212;-68
2021/04/28 08:40:38;;;;;;;11.93;9.20;;;11.70;99.90;;;;;;5093785;28;20544;-68
2021/04/28 08:43:04;;;;;;;12.40;8.63;;;11.80;99.90;;;;;;5082241;28;20750;-68
2021/04/28 08:45:30;;;;;;;9.60;7.87;;;11.80;99.90;;;;;;5091409;28;20192;-69
2021/04/28 08:47:55;;;;;;;13.63;8.57;;;11.70;99.90;;;;;;5090131;28;20237;-68
2021/04/28 08:50:21;;;;;;;12.90;8.23;;;11.80;99.90;;;;;;5069510;28;20798;-68
2021/04/28 08:52:50;;;;;;;10.37;7.33;;;11.80;99.90;;;;;;5075868;28;20216;-70
2021/04/28 08:55:16;;;;;;;11.75;7.88;;;11.90;99.90;;;;;;5075863;28;20315;-69
2021/04/28 08:57:42;;;;;;;16.00;9.10;;;11.90;99.90;;;;;;5076684;28;20280;-69
2021/04/28 09:00:08;;;;;;;11.27;7.40;;;12.00;99.90;;;;;;5079651;28;20184;-69
2021/04/28 09:02:35;;;;;;;10.00;7.67;;;12.10;99.90;;;;;;5069329;28;20556;-68
2021/04/28 09:05:11;;;;;;;15.45;8.82;;;12.10;99.90;;;;;;5076319;28;20887;-69
2021/04/28 09:07:44;;;;;;;10.55;7.25;;;12.20;99.90;;;;;;5083472;28;20204;-69
2021/04/28 09:10:16;;;;;;;12.90;8.55;;;12.20;99.90;;;;;;5083633;28;20227;-68
2021/04/28 09:13:00;;;;;;;15.23;9.10;;;12.30;99.90;;;;;;5071833;28;20205;-69
2021/04/28 09:15:31;;;;;;;10.82;7.25;;;12.40;99.90;;;;;;5066274;28;20433;-68
2021/04/28 09:17:57;;;;;;;13.32;7.50;;;12.40;99.90;;;;;;5072445;28;20204;-68
2021/04/28 09:20:43;;;;;;;11.00;7.97;;;12.50;99.90;;;;;;5069944;28;20283;-68
2021/04/28 09:23:38;;;;;;;13.30;8.60;;;12.50;99.90;;;;;;5072185;28;20228;-68
2021/04/28 09:26:17;;;;;;;10.87;7.30;;;12.50;99.90;;;;;;5070712;28;20449;-68
2021/04/28 09:28:51;;;;;;;11.23;7.93;;;12.60;99.90;;;;;;5077508;28;20436;-68
2021/04/28 09:31:18;;;;;;;11.13;8.00;;;12.70;99.90;;;;;;5070069;28;20236;-68
2021/04/28 09:33:51;;;;;;;10.77;7.30;;;12.70;99.90;;;;;;5077237;28;21020;-68
2021/04/28 09:36:26;;;;;;;11.53;7.77;;;12.80;99.90;;;;;;5070797;28;20448;-69
2021/04/28 09:38:54;;;;;;;11.70;7.60;;;12.80;99.90;;;;;;5088234;28;20471;-68
2021/04/28 09:41:34;;;;;;;11.80;8.00;;;12.80;99.90;;;;;;5079286;28;20446;-68
2021/04/28 09:44:01;;;;;;;13.00;8.30;;;12.90;99.90;;;;;;5075626;28;20490;-69
2021/04/28 09:46:26;;;;;;;13.43;7.80;;;12.80;99.90;;;;;;5068012;28;20603;-69
2021/04/28 09:49:05;;;;;;;11.47;8.33;;;12.70;99.90;;;;;;5069945;28;21072;-68
2021/04/28 09:51:36;;;;;;;12.13;8.60;;;12.70;99.90;;;;;;5069357;28;20678;-68
2021/04/28 09:54:14;;;;;;;15.60;9.43;;;12.80;99.90;;;;;;5081022;28;20946;-67
2021/04/28 09:56:42;;;;;;;11.77;8.13;;;12.70;99.90;;;;;;5077556;28;20444;-68
2021/04/28 09:59:08;;;;;;;13.97;10.30;;;12.80;99.90;;;;;;5090472;28;20542;-67
2021/04/28 10:01:39;;;;;;;12.50;8.93;;;12.70;99.90;;;;;;5090657;28;20540;-67
2021/04/28 10:04:07;;;;;;;12.33;9.10;;;12.70;99.90;;;;;;5084692;28;20444;-69
2021/04/28 10:07:02;;;;;;;12.27;9.00;;;12.80;99.90;;;;;;5088661;28;20941;-68
2021/04/28 10:09:30;;;;;;;10.60;8.10;;;12.80;99.90;;;;;;5082541;28;20800;-69
2021/04/28 10:12:01;;;;;;;15.70;10.07;;;12.70;99.90;;;;;;5070298;28;20477;-68
2021/04/28 10:14:28;;;;;;;13.60;9.50;;;12.70;99.90;;;;;;5074222;28;20464;-69
2021/04/28 10:16:56;;;;;;;12.40;9.00;;;12.80;99.90;;;;;;5067046;28;20518;-69
2021/04/28 10:19:23;;;;;;;14.40;8.50;;;12.70;99.90;;;;;;5088470;28;20475;-68
2021/04/28 10:21:50;;;;;;;12.00;9.57;;;12.70;99.90;;;;;;5070590;28;20915;-68
2021/04/28 10:24:18;;;;;;;15.93;9.20;;;12.70;99.90;;;;;;5083094;28;20460;-68
2021/04/28 10:26:44;;;;;;;12.97;9.47;;;12.70;99.90;;;;;;5087459;28;20437;-69
2021/04/28 10:29:13;;;;;;;13.20;8.70;;;12.70;99.90;;;;;;5088566;28;20461;-69
2021/04/28 10:31:39;;;;;;;15.00;8.97;;;12.80;99.90;;;;;;5087981;28;20472;-68
2021/04/28 10:34:06;;;;;;;13.30;8.60;;;12.80;99.90;;;;;;5086956;28;20535;-68
2021/04/28 10:36:34;;;;;;;10.90;7.13;;;12.80;99.90;;;;;;5080745;28;20483;-68
2021/04/28 10:39:00;;;;;;;12.80;8.17;;;12.90;99.90;;;;;;5090612;28;20810;-67
2021/04/28 10:41:44;;;;;;;13.83;8.03;;;12.90;99.90;;;;;;5089823;28;20757;-69
2021/04/28 10:44:37;;;;;;;14.00;8.83;;;12.90;99.90;;;;;;5092129;28;20480;-67
2021/04/28 10:47:22;;;;;;;14.10;7.77;;;12.80;99.90;;;;;;5090070;28;20486;-68
2021/04/28 10:50:20;;;;;;;14.10;8.63;;;12.90;99.90;;;;;;5092051;28;20433;-69
2021/04/28 10:53:03;;;;;;;13.10;10.23;;;12.80;99.90;;;;;;5080558;28;20453;-68
2021/04/28 10:55:38;;;;;;;13.20;9.13;;;12.80;99.90;;;;;;5087519;28;20434;-68
2021/04/28 10:58:30;;;;;;;16.63;8.43;;;12.70;99.90;;;;;;5089711;28;20475;-68
2021/04/28 11:00:59;;;;;;;12.63;8.30;;;12.80;99.90;;;;;;5091309;28;20500;-69
2021/04/28 11:03:34;;;;;;;13.57;9.13;;;12.80;99.90;;;;;;5092138;28;20513;-68
2021/04/28 11:06:23;;;;;;;14.37;9.20;;;12.80;99.90;;;;;;5089004;28;20432;-70
2021/04/28 11:08:49;;;;;;;16.40;10.30;;;12.80;99.90;;;;;;5084093;28;20469;-69
2021/04/28 11:11:42;;;;;;;14.43;8.73;;;12.80;99.90;;;;;;5081027;28;20465;-70
2021/04/28 11:14:11;;;;;;;14.07;9.03;;;12.80;99.90;;;;;;5083250;28;20303;-69
2021/04/28 11:16:47;;;;;;;12.03;8.43;;;12.80;99.90;;;;;;5090487;28;20428;-68
2021/04/28 11:19:36;;;;;;;14.73;10.20;;;12.90;99.90;;;;;;5091147;28;20543;-69
2021/04/28 11:22:10;;;;;;;14.97;9.70;;;12.90;99.90;;;;;;5090951;28;20440;-69
2021/04/28 11:25:08;;;;;;;11.80;8.70;;;12.90;99.90;;;;;;5090132;28;20516;-69
2021/04/28 11:27:51;;;;;;;16.63;9.70;;;13.00;99.90;;;;;;5075692;28;20451;-69
2021/04/28 11:30:45;;;;;;;15.00;9.13;;;13.00;99.90;;;;;;5091993;28;20901;-70
2021/04/28 11:33:30;;;;;;;18.50;11.77;;;13.00;99.90;;;;;;5076657;28;21112;-68
2021/04/28 11:35:56;;;;;;;16.73;10.00;;;13.00;99.90;;;;;;5094030;28;20926;-70
2021/04/28 11:38:27;;;;;;;15.23;10.30;;;13.00;99.90;;;;;;5093365;28;20444;-69
2021/04/28 11:41:03;;;;;;;15.00;10.07;;;13.10;99.90;;;;;;5093449;28;20222;-69
2021/04/28 11:43:38;;;;;;;14.90;9.40;;;13.10;99.90;;;;;;5091467;28;20452;-68
2021/04/28 11:46:13;;;;;;;15.40;10.20;;;13.10;99.90;;;;;;5093308;28;20933;-69
2021/04/28 11:48:42;;;;;;;19.30;9.87;;;13.00;99.90;;;;;;5090922;28;20536;-69
2021/04/28 11:51:21;;;;;;;16.90;11.10;;;13.10;99.90;;;;;;5092265;28;21054;-69
2021/04/28 11:53:59;;;;;;;14.70;9.37;;;13.10;99.90;;;;;;5094781;28;20971;-70
2021/04/28 11:56:54;;;;;;;14.50;10.67;;;13.20;99.90;;;;;;5092282;28;20828;-69
2021/04/28 11:59:26;;;;;;;14.10;10.07;;;13.20;99.90;;;;;;5094351;28;20464;-69
2021/04/28 12:01:58;;;;;;;12.17;9.03;;;13.20;99.90;;;;;;5090512;28;20421;-69
2021/04/28 12:04:38;;;;;;;13.90;9.70;;;13.30;99.90;;;;;;5084360;28;20492;-69
2021/04/28 12:07:05;;;;;;;13.57;8.97;;;13.30;99.90;;;;;;5078387;28;20934;-69
2021/04/28 12:09:42;;;;;;;12.80;9.07;;;13.30;99.90;;;;;;5093811;28;20976;-66
2021/04/28 12:12:29;;;;;;;14.73;9.37;;;13.30;99.90;;;;;;5077989;28;20477;-67
2021/04/28 12:15:04;;;;;;;12.80;8.80;;;13.30;99.90;;;;;;5092627;28;20440;-66
2021/04/28 12:17:31;;;;;;;11.17;8.40;;;13.40;99.90;;;;;;5092835;28;20983;-68
2021/04/28 12:19:57;;;;;;;12.20;9.57;;;13.30;99.90;;;;;;5093472;28;20425;-67
2021/04/28 12:22:24;;;;;;;15.70;9.93;;;13.30;99.90;;;;;;5093333;28;20428;-68
2021/04/28 12:24:52;;;;;;;15.73;9.83;;;13.40;99.90;;;;;;5095474;28;20402;-69
2021/04/28 12:27:26;;;;;;;13.13;8.07;;;13.30;99.90;;;;;;5093119;28;20417;-68
2021/04/28 12:29:58;;;;;;;15.57;9.77;;;13.30;99.90;;;;;;5093164;28;20964;-68
2021/04/28 12:32:45;;;;;;;10.87;9.17;;;13.30;99.90;;;;;;5095283;28;20433;-68
2021/04/28 12:35:23;;;;;;;12.23;9.13;;;13.30;99.90;;;;;;5092760;28;20784;-68
2021/04/28 12:38:12;;;;;;;14.33;9.37;;;13.30;99.90;;;;;;5091979;28;20460;-68
2021/04/28 12:40:44;;;;;;;13.83;9.77;;;13.30;99.90;;;;;;5092018;28;20421;-68
2021/04/28 12:43:13;;;;;;;17.07;10.27;;;13.40;99.90;;;;;;5094482;28;20433;-68
2021/04/28 12:45:38;;;;;;;18.03;11.40;;;13.30;99.90;;;;;;5092690;28;20439;-68
2021/04/28 12:48:05;;;;;;;18.73;11.63;;;13.30;99.90;;;;;;5094271;28;20485;-68